createdAt,value
2019-05-03T00:01:02.396Z,8.70
2019-05-03T00:03:28.463Z,8.50
2019-05-03T00:05:56.324Z,8.27
2019-05-03T00:08:22.362Z,9.20
2019-05-03T00:10:48.512Z,8.83
2019-05-03T00:13:14.540Z,8.90
2019-05-03T00:15:54.515Z,8.17
2019-05-03T00:18:22.129Z,8.33
2019-05-03T00:20:48.253Z,8.23
2019-05-03T00:23:14.320Z,9.03
2019-05-03T00:25:41.785Z,10.50
2019-05-03T00:28:07.963Z,10.70
2019-05-03T00:30:33.993Z,9.93
2019-05-03T00:33:00.072Z,10.13
2019-05-03T00:35:27.814Z,9.73
2019-05-03T00:37:55.546Z,8.97
2019-05-03T00:40:28.121Z,9.17
2019-05-03T00:42:54.165Z,8.63
2019-05-03T00:45:22.034Z,8.43
2019-05-03T00:47:48.014Z,7.63
2019-05-03T00:50:14.037Z,7.97
2019-05-03T00:52:39.915Z,8.23
2019-05-03T00:55:15.781Z,10.00
2019-05-03T00:57:33.684Z,9.30
2019-05-03T01:00:01.806Z,9.43
2019-05-03T01:02:27.468Z,9.50
2019-05-03T01:04:53.686Z,8.80
2019-05-03T01:07:19.831Z,8.30
2019-05-03T01:09:45.912Z,8.27
2019-05-03T01:12:12.623Z,9.00
2019-05-03T01:14:39.885Z,9.13
2019-05-03T01:17:05.751Z,9.87
2019-05-03T01:19:32.131Z,9.67
2019-05-03T01:21:58.036Z,9.77
2019-05-03T01:24:23.976Z,9.23
2019-05-03T01:26:49.970Z,10.07
2019-05-03T01:29:15.855Z,10.40
2019-05-03T01:31:44.596Z,10.10
2019-05-03T01:34:12.396Z,10.10
2019-05-03T01:36:38.596Z,11.10
2019-05-03T01:39:04.830Z,9.73
2019-05-03T01:41:32.331Z,9.50
2019-05-03T01:43:58.266Z,10.87
2019-05-03T01:46:24.333Z,10.53
2019-05-03T01:48:52.464Z,10.37
2019-05-03T01:51:22.917Z,10.43
2019-05-03T01:53:49.860Z,10.80
2019-05-03T01:56:15.756Z,10.90
2019-05-03T01:58:41.780Z,11.30
2019-05-03T02:01:15.681Z,12.43
2019-05-03T02:04:00.123Z,11.77
2019-05-03T02:06:26.074Z,12.00
2019-05-03T02:08:52.238Z,10.97
2019-05-03T02:11:18.231Z,10.83
2019-05-03T02:13:44.072Z,12.77
2019-05-03T02:16:11.601Z,12.13
2019-05-03T02:18:37.655Z,11.80
2019-05-03T02:21:03.731Z,11.93
2019-05-03T02:23:29.576Z,12.93
2019-05-03T02:25:58.941Z,12.00
2019-05-03T02:28:23.231Z,11.73
2019-05-03T02:30:49.221Z,12.87
2019-05-03T02:33:15.238Z,12.10
2019-05-03T02:35:42.944Z,11.60
2019-05-03T02:38:09.637Z,12.33
2019-05-03T02:40:35.638Z,12.10
2019-05-03T02:43:12.355Z,12.43
2019-05-03T02:45:40.361Z,13.17
2019-05-03T02:48:16.517Z,14.30
2019-05-03T02:50:42.281Z,13.10
2019-05-03T02:53:08.125Z,11.97
2019-05-03T02:55:35.914Z,13.43
2019-05-03T02:58:01.941Z,13.20
2019-05-03T03:00:37.418Z,12.70
2019-05-03T03:03:05.478Z,11.63
2019-05-03T03:05:31.451Z,9.37
2019-05-03T03:07:58.212Z,9.80
2019-05-03T03:10:26.485Z,8.27
2019-05-03T03:12:56.350Z,10.40
2019-05-03T03:15:25.690Z,8.47
2019-05-03T03:17:52.670Z,8.70
2019-05-03T03:20:18.618Z,8.97
2019-05-03T03:22:47.675Z,8.77
2019-05-03T03:25:17.508Z,10.37
2019-05-03T03:27:45.335Z,11.27
2019-05-03T03:30:30.927Z,11.20
2019-05-03T03:32:58.991Z,10.97
2019-05-03T03:35:29.834Z,12.20
2019-05-03T03:37:56.040Z,11.37
2019-05-03T03:40:25.441Z,11.33
2019-05-03T03:42:51.583Z,9.10
2019-05-03T03:45:17.653Z,8.50
2019-05-03T03:47:46.509Z,8.23
2019-05-03T03:50:15.054Z,9.30
2019-05-03T03:52:40.640Z,8.93
2019-05-03T03:55:06.991Z,9.50
2019-05-03T03:57:35.639Z,9.87
2019-05-03T04:00:05.450Z,9.47
2019-05-03T04:02:35.133Z,9.40
2019-05-03T04:05:00.134Z,9.53
2019-05-03T04:07:26.383Z,9.67
2019-05-03T04:09:56.083Z,11.03
2019-05-03T04:12:21.351Z,10.67
2019-05-03T04:15:01.719Z,9.30
2019-05-03T04:17:46.795Z,9.27
2019-05-03T04:20:16.206Z,7.97
2019-05-03T04:22:41.902Z,7.90
2019-05-03T04:25:08.061Z,7.47
2019-05-03T04:27:36.478Z,7.30
2019-05-03T04:30:05.854Z,5.53
2019-05-03T04:32:35.958Z,5.97
2019-05-03T04:35:05.371Z,6.50
2019-05-03T04:37:31.458Z,6.80
2019-05-03T04:39:57.429Z,7.77
2019-05-03T04:42:25.374Z,8.00
2019-05-03T04:44:51.119Z,8.73
2019-05-03T04:47:17.181Z,8.20
2019-05-03T04:49:45.989Z,7.97
2019-05-03T04:52:10.911Z,7.43
2019-05-03T04:54:50.618Z,6.03
2019-05-03T04:57:34.341Z,5.57
2019-05-03T04:59:45.146Z,6.03
2019-05-03T05:02:11.502Z,5.63
2019-05-03T05:04:37.334Z,6.37
2019-05-03T05:07:05.935Z,6.53
2019-05-03T05:09:31.254Z,5.73
2019-05-03T05:11:57.195Z,6.23
2019-05-03T05:14:25.656Z,5.47
2019-05-03T05:16:50.791Z,5.70
2019-05-03T05:19:18.632Z,5.67
2019-05-03T05:21:46.495Z,5.77
2019-05-03T05:24:12.513Z,5.70
2019-05-03T05:26:44.620Z,5.40
2019-05-03T05:29:15.408Z,5.40
2019-05-03T05:31:41.237Z,4.43
2019-05-03T05:34:08.809Z,4.90
2019-05-03T05:36:35.083Z,4.93
2019-05-03T05:39:00.930Z,4.87
2019-05-03T05:41:27.018Z,4.33
2019-05-03T05:43:54.845Z,6.03
2019-05-03T05:46:22.520Z,4.97
2019-05-03T05:48:49.988Z,5.10
2019-05-03T05:51:16.223Z,6.77
2019-05-03T05:53:42.187Z,5.40
2019-05-03T05:56:18.768Z,4.50
2019-05-03T05:58:52.274Z,5.20
2019-05-03T06:01:24.873Z,7.67
2019-05-03T06:03:50.647Z,5.70
2019-05-03T06:06:18.394Z,6.30
2019-05-03T06:08:49.579Z,5.83
2019-05-03T06:11:26.365Z,5.37
2019-05-03T06:13:54.607Z,5.30
2019-05-03T06:16:24.416Z,5.87
2019-05-03T06:18:52.051Z,6.33
2019-05-03T06:21:24.968Z,6.43
2019-05-03T06:23:53.100Z,7.67
2019-05-03T06:26:35.950Z,5.50
2019-05-03T06:29:04.626Z,5.80
2019-05-03T06:31:38.454Z,5.50
2019-05-03T06:34:04.591Z,6.23
2019-05-03T06:36:30.592Z,7.00
2019-05-03T06:38:56.769Z,7.53
2019-05-03T06:41:22.726Z,8.50
2019-05-03T06:43:48.886Z,7.67
2019-05-03T06:46:18.158Z,8.67
2019-05-03T06:48:44.359Z,7.40
2019-05-03T06:51:14.118Z,8.13
2019-05-03T06:53:41.930Z,7.77
2019-05-03T06:56:05.912Z,7.70
2019-05-03T06:58:35.742Z,7.83
2019-05-03T07:01:01.643Z,7.73
2019-05-03T07:03:35.461Z,6.93
2019-05-03T07:06:18.415Z,7.00
2019-05-03T07:08:55.235Z,7.20
2019-05-03T07:11:21.252Z,7.30
2019-05-03T07:13:47.121Z,7.57
2019-05-03T07:16:14.898Z,7.47
2019-05-03T07:18:40.924Z,6.97
2019-05-03T07:21:07.015Z,7.90
2019-05-03T07:23:34.758Z,7.47
2019-05-03T07:26:00.828Z,7.13
2019-05-03T07:28:26.816Z,8.03
2019-05-03T07:30:54.411Z,7.77
2019-05-03T07:33:25.559Z,7.93
2019-05-03T07:35:51.604Z,6.97
2019-05-03T07:38:17.542Z,6.53
2019-05-03T07:40:44.591Z,6.93
2019-05-03T07:43:10.715Z,7.00
2019-05-03T07:45:36.587Z,7.17
2019-05-03T07:48:04.544Z,6.77
2019-05-03T07:50:32.999Z,7.40
2019-05-03T07:52:58.285Z,6.40
2019-05-03T07:55:42.737Z,5.80
2019-05-03T07:58:10.500Z,5.37
2019-05-03T08:00:36.555Z,6.07
2019-05-03T08:03:04.912Z,6.20
2019-05-03T08:05:30.893Z,6.87
2019-05-03T08:07:56.730Z,6.47
2019-05-03T08:10:22.822Z,7.07
2019-05-03T08:12:48.676Z,6.60
2019-05-03T08:15:15.731Z,6.33
2019-05-03T08:17:41.789Z,7.03
2019-05-03T08:20:07.823Z,6.93
2019-05-03T08:22:34.533Z,6.80
2019-05-03T08:25:00.558Z,6.60
2019-05-03T08:27:26.419Z,7.10
2019-05-03T08:29:52.271Z,7.07
2019-05-03T08:32:32.400Z,6.97
2019-05-03T08:35:16.937Z,6.73
2019-05-03T08:37:50.649Z,7.60
2019-05-03T08:40:17.319Z,7.40
2019-05-03T08:42:44.463Z,7.33
2019-05-03T08:45:10.738Z,7.57
2019-05-03T08:47:36.674Z,7.90
2019-05-03T08:50:05.610Z,8.60
2019-05-03T08:52:31.775Z,9.53
2019-05-03T08:54:57.642Z,9.77
2019-05-03T08:57:25.343Z,9.50
2019-05-03T08:59:51.350Z,8.87
2019-05-03T09:02:18.125Z,8.60
2019-05-03T09:04:46.243Z,8.47
2019-05-03T09:07:14.610Z,8.30
2019-05-03T09:09:42.178Z,7.73
2019-05-03T09:12:08.156Z,6.40
2019-05-03T09:14:42.556Z,6.70
2019-05-03T09:17:02.258Z,7.10
2019-05-03T09:19:28.123Z,6.90
2019-05-03T09:21:54.885Z,7.53
2019-05-03T09:24:20.892Z,7.30
2019-05-03T09:26:46.832Z,7.90
2019-05-03T09:29:14.708Z,7.23
2019-05-03T09:31:40.568Z,7.20
2019-05-03T09:34:08.283Z,8.00
2019-05-03T09:36:34.591Z,7.40
2019-05-03T09:39:00.630Z,7.63
2019-05-03T09:41:27.167Z,7.97
2019-05-03T09:43:55.253Z,8.20
2019-05-03T09:46:23.334Z,7.73
2019-05-03T09:48:48.521Z,7.87
2019-05-03T09:51:14.897Z,8.07
2019-05-03T09:53:51.757Z,8.10
2019-05-03T09:56:19.571Z,8.13
2019-05-03T09:58:46.117Z,7.97
2019-05-03T10:01:12.250Z,7.57
2019-05-03T10:03:38.334Z,8.00
2019-05-03T10:06:04.357Z,7.20
2019-05-03T10:08:30.189Z,7.97
2019-05-03T10:11:11.519Z,5.40
2019-05-03T10:13:37.659Z,5.77
2019-05-03T10:16:05.979Z,5.73
2019-05-03T10:18:34.812Z,6.30
2019-05-03T10:21:00.785Z,6.73
2019-05-03T10:23:28.621Z,6.53
2019-05-03T10:25:55.222Z,6.17
2019-05-03T10:28:21.134Z,6.53
2019-05-03T10:30:47.102Z,6.20
2019-05-03T10:33:17.872Z,6.10
2019-05-03T10:35:45.137Z,6.73
2019-05-03T10:38:11.415Z,6.60
2019-05-03T10:40:41.592Z,7.47
2019-05-03T10:43:08.326Z,7.80
2019-05-03T10:45:35.508Z,9.30
2019-05-03T10:48:01.634Z,9.97
2019-05-03T10:50:27.700Z,10.10
2019-05-03T10:52:58.207Z,11.53
2019-05-03T10:55:25.038Z,11.17
2019-05-03T10:58:08.079Z,11.63
2019-05-03T11:00:48.184Z,11.63
2019-05-03T11:03:05.330Z,12.60
2019-05-03T11:05:31.786Z,11.67
2019-05-03T11:07:57.703Z,11.77
2019-05-03T11:10:25.281Z,12.90
2019-05-03T11:12:51.455Z,12.73
2019-05-03T11:15:17.384Z,12.27
2019-05-03T11:17:45.370Z,13.13
2019-05-03T11:20:11.446Z,13.90
2019-05-03T11:22:37.402Z,12.83
2019-05-03T11:25:05.151Z,12.90
2019-05-03T11:27:48.515Z,13.40
2019-05-03T11:30:15.758Z,13.77
2019-05-03T11:32:49.801Z,14.10
2019-05-03T11:35:24.687Z,13.73
2019-05-03T11:37:52.604Z,13.47
2019-05-03T11:40:18.567Z,12.90
2019-05-03T11:42:44.915Z,12.40
2019-05-03T11:45:11.060Z,11.37
2019-05-03T11:47:37.232Z,10.53
2019-05-03T11:50:06.376Z,10.50
2019-05-03T11:52:32.418Z,9.93
2019-05-03T11:54:58.483Z,9.17
2019-05-03T11:57:26.597Z,8.27
2019-05-03T11:59:54.645Z,6.60
2019-05-03T12:02:22.266Z,6.00
2019-05-03T12:04:48.121Z,6.63
2019-05-03T12:07:18.391Z,7.07
2019-05-03T12:09:45.203Z,8.30
2019-05-03T12:12:15.044Z,8.50
2019-05-03T12:14:40.978Z,9.53
2019-05-03T12:17:17.860Z,9.80
2019-05-03T12:19:37.883Z,10.20
2019-05-03T12:22:06.154Z,9.90
2019-05-03T12:24:32.442Z,9.90
2019-05-03T12:26:58.678Z,10.50
2019-05-03T12:29:24.779Z,11.00
2019-05-03T12:31:50.616Z,11.50
2019-05-03T12:34:16.556Z,11.20
2019-05-03T12:36:42.513Z,11.30
2019-05-03T12:39:23.211Z,9.37
2019-05-03T12:41:36.225Z,10.33
2019-05-03T12:44:04.505Z,9.43
2019-05-03T12:46:30.024Z,9.07
2019-05-03T12:48:55.861Z,8.87
2019-05-03T12:51:21.736Z,9.03
2019-05-03T12:53:47.552Z,8.60
2019-05-03T12:56:20.562Z,8.50
2019-05-03T12:58:45.540Z,7.97
2019-05-03T13:01:40.935Z,7.53
2019-05-03T13:03:59.198Z,7.73
2019-05-03T13:06:25.448Z,10.50
2019-05-03T13:08:51.468Z,8.00
2019-05-03T13:11:17.363Z,3.10
2019-05-03T13:13:45.242Z,2.10
2019-05-03T13:16:15.185Z,2.20
2019-05-03T13:18:40.816Z,1.90
2019-05-03T13:21:06.845Z,1.80
2019-05-03T13:23:35.357Z,1.60
2019-05-03T13:26:00.853Z,1.60
2019-05-03T13:28:26.816Z,1.57
2019-05-03T13:30:54.492Z,1.60
2019-05-03T13:33:20.449Z,1.67
2019-05-03T13:35:46.386Z,2.37
2019-05-03T13:38:12.237Z,2.70
2019-05-03T13:40:38.139Z,2.10
2019-05-03T13:43:06.465Z,2.63
2019-05-03T13:45:32.019Z,2.37
2019-05-03T13:47:58.003Z,2.30
2019-05-03T13:50:24.572Z,2.47
2019-05-03T13:52:50.645Z,2.50
2019-05-03T13:55:16.742Z,2.60
2019-05-03T13:57:42.658Z,3.13
2019-05-03T14:00:09.121Z,3.20
2019-05-03T14:02:35.746Z,2.73
2019-05-03T14:05:04.958Z,3.60
2019-05-03T14:07:30.979Z,3.47
2019-05-03T14:09:56.802Z,3.90
2019-05-03T14:12:24.378Z,3.73
2019-05-03T14:14:55.749Z,4.10
2019-05-03T14:17:25.200Z,3.33
2019-05-03T14:19:54.506Z,3.47
2019-05-03T14:22:22.313Z,3.50
2019-05-03T14:24:48.162Z,2.87
2019-05-03T14:27:15.637Z,3.10
2019-05-03T14:29:41.967Z,2.77
2019-05-03T14:32:07.928Z,3.33
2019-05-03T14:34:35.819Z,3.20
2019-05-03T14:37:01.666Z,2.93
2019-05-03T14:39:27.658Z,3.47
2019-05-03T14:41:55.345Z,3.47
